sensor_id;sensor_type;location;lat;lon;timestamp;temperature;humidity
55016;DHT22;40919;43.236;21.590;2023-03-01T00:00:37;128.70;2252.80
55016;DHT22;40919;43.236;21.590;2023-03-01T00:03:03;128.70;2252.80
55016;DHT22;40919;43.236;21.590;2023-03-01T00:05:29;128.70;2252.80
55016;DHT22;40919;43.236;21.590;2023-03-01T00:07:55;128.70;2252.80
55016;DHT22;40919;43.236;21.590;2023-03-01T00:10:20;128.60;2252.80
55016;DHT22;40919;43.236;21.590;2023-03-01T00:12:46;128.60;2252.80
55016;DHT22;40919;43.236;21.590;2023-03-01T00:15:12;128.60;2252.80
55016;DHT22;40919;43.236;21.590;2023-03-01T00:17:37;128.50;2252.80
55016;DHT22;40919;43.236;21.590;2023-03-01T00:20:04;128.60;2252.80
55016;DHT22;40919;43.236;21.590;2023-03-01T00:22:33;128.60;2252.80
55016;DHT22;40919;43.236;21.590;2023-03-01T00:24:59;128.70;2252.80
55016;DHT22;40919;43.236;21.590;2023-03-01T00:27:25;128.70;2252.80
55016;DHT22;40919;43.236;21.590;2023-03-01T00:29:50;128.70;2252.80
55016;DHT22;40919;43.236;21.590;2023-03-01T00:32:17;128.70;2252.80
55016;DHT22;40919;43.236;21.590;2023-03-01T00:34:43;128.70;2252.80
55016;DHT22;40919;43.236;21.590;2023-03-01T00:37:23;128.70;2252.80
55016;DHT22;40919;43.236;21.590;2023-03-01T00:39:49;128.70;2252.80
55016;DHT22;40919;43.236;21.590;2023-03-01T00:42:16;128.70;2252.80
55016;DHT22;40919;43.236;21.590;2023-03-01T00:44:42;128.70;2252.80
55016;DHT22;40919;43.236;21.590;2023-03-01T00:47:08;128.80;2252.80
55016;DHT22;40919;43.236;21.590;2023-03-01T00:49:34;128.80;2252.80
55016;DHT22;40919;43.236;21.590;2023-03-01T00:52:00;128.90;2252.80
55016;DHT22;40919;43.236;21.590;2023-03-01T00:54:26;128.90;2252.80
55016;DHT22;40919;43.236;21.590;2023-03-01T00:56:52;128.80;2252.80
55016;DHT22;40919;43.236;21.590;2023-03-01T00:59:17;128.80;2252.80
55016;DHT22;40919;43.236;21.590;2023-03-01T01:01:43;128.80;2252.80
55016;DHT22;40919;43.236;21.590;2023-03-01T01:04:11;128.70;2252.80
55016;DHT22;40919;43.236;21.590;2023-03-01T01:06:46;128.70;2252.80
55016;DHT22;40919;43.236;21.590;2023-03-01T01:09:15;128.70;2252.80
55016;DHT22;40919;43.236;21.590;2023-03-01T01:11:48;128.70;2252.80
55016;DHT22;40919;43.236;21.590;2023-03-01T01:14:15;128.60;2252.80
55016;DHT22;40919;43.236;21.590;2023-03-01T01:16:41;128.50;2252.80
55016;DHT22;40919;43.236;21.590;2023-03-01T01:19:07;128.60;2252.80
55016;DHT22;40919;43.236;21.590;2023-03-01T01:21:33;128.60;2252.80
55016;DHT22;40919;43.236;21.590;2023-03-01T01:23:59;128.60;2252.80
55016;DHT22;40919;43.236;21.590;2023-03-01T01:26:28;128.60;2252.80
55016;DHT22;40919;43.236;21.590;2023-03-01T01:28:54;128.60;2252.80
55016;DHT22;40919;43.236;21.590;2023-03-01T01:31:20;128.60;2252.80
55016;DHT22;40919;43.236;21.590;2023-03-01T01:33:49;128.60;2252.80
55016;DHT22;40919;43.236;21.590;2023-03-01T01:36:15;128.60;2252.80
55016;DHT22;40919;43.236;21.590;2023-03-01T01:38:41;128.60;2252.80
55016;DHT22;40919;43.236;21.590;2023-03-01T01:41:08;128.90;2252.80
55016;DHT22;40919;43.236;21.590;2023-03-01T01:43:46;128.60;2252.80
55016;DHT22;40919;43.236;21.590;2023-03-01T01:48:48;128.50;2252.80
55016;DHT22;40919;43.236;21.590;2023-03-01T01:51:39;128.50;2252.80
55016;DHT22;40919;43.236;21.590;2023-03-01T01:54:21;128.40;2252.80
55016;DHT22;40919;43.236;21.590;2023-03-01T01:57:00;128.40;2252.80
55016;DHT22;40919;43.236;21.590;2023-03-01T01:59:28;128.40;2252.80
55016;DHT22;40919;43.236;21.590;2023-03-01T02:01:59;128.40;2252.80
55016;DHT22;40919;43.236;21.590;2023-03-01T02:04:25;128.40;2252.80
55016;DHT22;40919;43.236;21.590;2023-03-01T02:07:00;128.50;2252.80
55016;DHT22;40919;43.236;21.590;2023-03-01T02:09:27;128.50;2252.80
55016;DHT22;40919;43.236;21.590;2023-03-01T02:11:53;128.50;2252.80
55016;DHT22;40919;43.236;21.590;2023-03-01T02:14:19;128.50;2252.80
55016;DHT22;40919;43.236;21.590;2023-03-01T02:16:45;128.60;2252.80
55016;DHT22;40919;43.236;21.590;2023-03-01T02:19:20;128.60;2252.80
55016;DHT22;40919;43.236;21.590;2023-03-01T02:22:02;128.70;2252.80
55016;DHT22;40919;43.236;21.590;2023-03-01T02:24:50;128.70;2252.80
55016;DHT22;40919;43.236;21.590;2023-03-01T02:27:19;128.70;2252.80
55016;DHT22;40919;43.236;21.590;2023-03-01T02:29:47;128.70;2252.80
55016;DHT22;40919;43.236;21.590;2023-03-01T02:32:14;128.70;2252.80
55016;DHT22;40919;43.236;21.590;2023-03-01T02:34:41;128.70;2252.80
55016;DHT22;40919;43.236;21.590;2023-03-01T02:37:11;128.70;2252.80
55016;DHT22;40919;43.236;21.590;2023-03-01T02:39:46;128.70;2252.80
55016;DHT22;40919;43.236;21.590;2023-03-01T02:42:17;128.80;2252.80
55016;DHT22;40919;43.236;21.590;2023-03-01T02:44:45;128.80;2252.80
55016;DHT22;40919;43.236;21.590;2023-03-01T02:47:10;128.80;2252.80
55016;DHT22;40919;43.236;21.590;2023-03-01T02:49:37;128.80;2252.80
55016;DHT22;40919;43.236;21.590;2023-03-01T02:55:20;128.80;2252.80
55016;DHT22;40919;43.236;21.590;2023-03-01T02:57:47;128.80;2252.80
55016;DHT22;40919;43.236;21.590;2023-03-01T03:00:19;128.90;2252.80
55016;DHT22;40919;43.236;21.590;2023-03-01T03:02:48;153.60;2252.80
55016;DHT22;40919;43.236;21.590;2023-03-01T03:05:20;153.60;2252.80
55016;DHT22;40919;43.236;21.590;2023-03-01T03:07:47;153.70;2252.80
55016;DHT22;40919;43.236;21.590;2023-03-01T03:10:19;153.70;2252.80
55016;DHT22;40919;43.236;21.590;2023-03-01T03:12:53;153.60;2252.80
55016;DHT22;40919;43.236;21.590;2023-03-01T03:15:19;128.90;2252.80
55016;DHT22;40919;43.236;21.590;2023-03-01T03:17:46;128.90;2252.80
55016;DHT22;40919;43.236;21.590;2023-03-01T03:20:14;153.70;2252.80
55016;DHT22;40919;43.236;21.590;2023-03-01T03:22:48;153.60;2252.80
55016;DHT22;40919;43.236;21.590;2023-03-01T03:25:14;128.90;2252.80
55016;DHT22;40919;43.236;21.590;2023-03-01T03:27:42;154.20;2252.80
55016;DHT22;40919;43.236;21.590;2023-03-01T03:30:15;153.60;2252.80
55016;DHT22;40919;43.236;21.590;2023-03-01T03:32:43;153.70;2252.80
55016;DHT22;40919;43.236;21.590;2023-03-01T03:35:22;153.60;2252.80
55016;DHT22;40919;43.236;21.590;2023-03-01T03:37:50;153.60;2252.80
55016;DHT22;40919;43.236;21.590;2023-03-01T03:40:30;153.60;2252.80
55016;DHT22;40919;43.236;21.590;2023-03-01T03:42:56;153.60;2252.80
55016;DHT22;40919;43.236;21.590;2023-03-01T03:45:22;128.90;2252.80
55016;DHT22;40919;43.236;21.590;2023-03-01T03:47:48;153.60;2252.80
55016;DHT22;40919;43.236;21.590;2023-03-01T03:50:16;153.60;2252.80
55016;DHT22;40919;43.236;21.590;2023-03-01T03:52:42;153.60;2252.80
55016;DHT22;40919;43.236;21.590;2023-03-01T03:55:09;153.60;2252.80
55016;DHT22;40919;43.236;21.590;2023-03-01T03:57:37;153.60;2252.80
55016;DHT22;40919;43.236;21.590;2023-03-01T04:00:03;153.60;2252.80
55016;DHT22;40919;43.236;21.590;2023-03-01T04:02:30;153.60;2252.80
55016;DHT22;40919;43.236;21.590;2023-03-01T04:04:56;153.60;2252.80
55016;DHT22;40919;43.236;21.590;2023-03-01T04:07:22;153.60;2252.80
55016;DHT22;40919;43.236;21.590;2023-03-01T04:09:48;153.60;2252.80
55016;DHT22;40919;43.236;21.590;2023-03-01T04:12:14;153.60;2252.80
55016;DHT22;40919;43.236;21.590;2023-03-01T04:14:40;153.60;2252.80
55016;DHT22;40919;43.236;21.590;2023-03-01T04:17:05;153.60;2252.80
55016;DHT22;40919;43.236;21.590;2023-03-01T04:19:31;128.90;2252.80
55016;DHT22;40919;43.236;21.590;2023-03-01T04:22:02;128.90;2252.80
55016;DHT22;40919;43.236;21.590;2023-03-01T04:24:35;153.60;2252.80
55016;DHT22;40919;43.236;21.590;2023-03-01T04:27:01;153.60;2252.80
55016;DHT22;40919;43.236;21.590;2023-03-01T04:29:27;153.70;2252.80
55016;DHT22;40919;43.236;21.590;2023-03-01T04:31:53;153.60;2252.80
55016;DHT22;40919;43.236;21.590;2023-03-01T04:34:19;153.60;2252.80
55016;DHT22;40919;43.236;21.590;2023-03-01T04:36:44;153.60;2252.80
55016;DHT22;40919;43.236;21.590;2023-03-01T04:39:10;153.60;2252.80
55016;DHT22;40919;43.236;21.590;2023-03-01T04:41:39;153.70;2252.80
55016;DHT22;40919;43.236;21.590;2023-03-01T04:44:06;128.90;2252.80
55016;DHT22;40919;43.236;21.590;2023-03-01T04:46:32;153.60;2252.80
55016;DHT22;40919;43.236;21.590;2023-03-01T04:48:58;153.60;2252.80
55016;DHT22;40919;43.236;21.590;2023-03-01T04:51:23;153.60;2252.80
55016;DHT22;40919;43.236;21.590;2023-03-01T04:53:49;153.60;2252.80
55016;DHT22;40919;43.236;21.590;2023-03-01T04:56:16;153.60;2252.80
55016;DHT22;40919;43.236;21.590;2023-03-01T04:58:44;153.60;2252.80
55016;DHT22;40919;43.236;21.590;2023-03-01T05:01:16;153.70;2252.80
55016;DHT22;40919;43.236;21.590;2023-03-01T05:03:46;153.60;2252.80
55016;DHT22;40919;43.236;21.590;2023-03-01T05:06:13;153.70;2252.80
55016;DHT22;40919;43.236;21.590;2023-03-01T05:08:40;153.70;2252.80
55016;DHT22;40919;43.236;21.590;2023-03-01T05:11:07;153.70;2252.80
55016;DHT22;40919;43.236;21.590;2023-03-01T05:13:35;153.60;2252.80
55016;DHT22;40919;43.236;21.590;2023-03-01T05:16:02;153.60;2252.80
55016;DHT22;40919;43.236;21.590;2023-03-01T05:18:30;153.60;2252.80
55016;DHT22;40919;43.236;21.590;2023-03-01T05:21:03;153.60;2252.80
55016;DHT22;40919;43.236;21.590;2023-03-01T05:23:30;153.60;2252.80
55016;DHT22;40919;43.236;21.590;2023-03-01T05:26:00;153.60;2252.80
55016;DHT22;40919;43.236;21.590;2023-03-01T05:28:27;153.60;2252.80
55016;DHT22;40919;43.236;21.590;2023-03-01T05:30:54;153.60;2252.80
55016;DHT22;40919;43.236;21.590;2023-03-01T05:33:20;153.60;2252.80
55016;DHT22;40919;43.236;21.590;2023-03-01T05:35:48;128.90;2252.80
55016;DHT22;40919;43.236;21.590;2023-03-01T05:38:15;128.90;2252.80
55016;DHT22;40919;43.236;21.590;2023-03-01T05:40:42;128.90;2252.80
55016;DHT22;40919;43.236;21.590;2023-03-01T05:43:09;128.90;2252.80
55016;DHT22;40919;43.236;21.590;2023-03-01T05:45:37;128.80;2252.80
55016;DHT22;40919;43.236;21.590;2023-03-01T05:48:04;128.90;2252.80
55016;DHT22;40919;43.236;21.590;2023-03-01T05:50:34;128.90;2252.80
55016;DHT22;40919;43.236;21.590;2023-03-01T05:53:03;128.90;2252.80
55016;DHT22;40919;43.236;21.590;2023-03-01T05:55:31;128.90;2252.80
55016;DHT22;40919;43.236;21.590;2023-03-01T05:58:01;128.90;2252.80
55016;DHT22;40919;43.236;21.590;2023-03-01T06:00:28;128.90;2252.80
55016;DHT22;40919;43.236;21.590;2023-03-01T06:02:55;128.90;2252.80
55016;DHT22;40919;43.236;21.590;2023-03-01T06:05:22;153.60;2252.80
55016;DHT22;40919;43.236;21.590;2023-03-01T06:07:48;153.60;2252.80
55016;DHT22;40919;43.236;21.590;2023-03-01T06:10:14;153.70;2252.80
55016;DHT22;40919;43.236;21.590;2023-03-01T06:12:41;153.70;2252.80
55016;DHT22;40919;43.236;21.590;2023-03-01T06:15:08;153.60;2252.80
55016;DHT22;40919;43.236;21.590;2023-03-01T06:17:38;153.70;2252.80
55016;DHT22;40919;43.236;21.590;2023-03-01T06:20:06;153.70;2252.80
55016;DHT22;40919;43.236;21.590;2023-03-01T06:22:32;153.60;2252.80
55016;DHT22;40919;43.236;21.590;2023-03-01T06:24:58;153.70;2252.80
55016;DHT22;40919;43.236;21.590;2023-03-01T06:27:23;153.70;2252.80
55016;DHT22;40919;43.236;21.590;2023-03-01T06:29:49;153.80;2252.80
55016;DHT22;40919;43.236;21.590;2023-03-01T06:32:15;153.80;2252.80
55016;DHT22;40919;43.236;21.590;2023-03-01T06:34:41;153.70;2252.80
55016;DHT22;40919;43.236;21.590;2023-03-01T06:37:07;153.80;2252.80
55016;DHT22;40919;43.236;21.590;2023-03-01T06:41:59;153.90;2252.80
55016;DHT22;40919;43.236;21.590;2023-03-01T06:44:25;154.00;2252.80
55016;DHT22;40919;43.236;21.590;2023-03-01T06:46:51;154.00;2252.80
55016;DHT22;40919;43.236;21.590;2023-03-01T06:49:17;153.80;2252.80
55016;DHT22;40919;43.236;21.590;2023-03-01T06:51:43;153.90;2252.80
55016;DHT22;40919;43.236;21.590;2023-03-01T06:54:10;154.00;2252.80
55016;DHT22;40919;43.236;21.590;2023-03-01T06:56:35;154.00;2252.80
55016;DHT22;40919;43.236;21.590;2023-03-01T06:59:01;154.10;2252.80
55016;DHT22;40919;43.236;21.590;2023-03-01T07:03:54;154.10;2252.80
55016;DHT22;40919;43.236;21.590;2023-03-01T07:06:20;153.90;2252.80
55016;DHT22;40919;43.236;21.590;2023-03-01T07:08:46;154.00;2252.80
55016;DHT22;40919;43.236;21.590;2023-03-01T07:11:12;154.00;2252.80
55016;DHT22;40919;43.236;21.590;2023-03-01T07:13:38;154.00;2252.80
55016;DHT22;40919;43.236;21.590;2023-03-01T07:16:04;154.10;2252.80
55016;DHT22;40919;43.236;21.590;2023-03-01T07:18:30;154.10;2252.80
55016;DHT22;40919;43.236;21.590;2023-03-01T07:20:55;154.10;2252.80
55016;DHT22;40919;43.236;21.590;2023-03-01T07:23:21;154.10;2252.80
55016;DHT22;40919;43.236;21.590;2023-03-01T07:25:54;154.10;2252.80
55016;DHT22;40919;43.236;21.590;2023-03-01T07:28:22;154.20;2252.80
55016;DHT22;40919;43.236;21.590;2023-03-01T07:30:48;154.30;2252.80
55016;DHT22;40919;43.236;21.590;2023-03-01T07:33:14;154.30;2252.80
55016;DHT22;40919;43.236;21.590;2023-03-01T07:35:39;154.30;2252.80
55016;DHT22;40919;43.236;21.590;2023-03-01T07:38:05;154.30;2252.80
55016;DHT22;40919;43.236;21.590;2023-03-01T07:40:31;154.20;2252.80
55016;DHT22;40919;43.236;21.590;2023-03-01T07:42:57;154.20;2252.80
55016;DHT22;40919;43.236;21.590;2023-03-01T07:45:24;154.30;2252.80
55016;DHT22;40919;43.236;21.590;2023-03-01T07:47:51;154.20;2252.80
55016;DHT22;40919;43.236;21.590;2023-03-01T07:50:18;154.20;2252.80
55016;DHT22;40919;43.236;21.590;2023-03-01T07:52:48;154.30;2252.80
55016;DHT22;40919;43.236;21.590;2023-03-01T07:55:15;154.30;2252.80
55016;DHT22;40919;43.236;21.590;2023-03-01T07:57:41;154.40;2252.80
55016;DHT22;40919;43.236;21.590;2023-03-01T08:00:09;154.40;2252.80
55016;DHT22;40919;43.236;21.590;2023-03-01T08:02:35;154.40;2252.80
55016;DHT22;40919;43.236;21.590;2023-03-01T08:05:01;154.40;2252.80
55016;DHT22;40919;43.236;21.590;2023-03-01T08:07:27;154.50;2252.80
55016;DHT22;40919;43.236;21.590;2023-03-01T08:09:52;154.50;2252.80
55016;DHT22;40919;43.236;21.590;2023-03-01T08:12:18;154.50;2252.80
55016;DHT22;40919;43.236;21.590;2023-03-01T08:22:02;179.30;2252.80
55016;DHT22;40919;43.236;21.590;2023-03-01T08:24:28;179.30;2252.80
55016;DHT22;40919;43.236;21.590;2023-03-01T08:26:54;179.30;2252.80
55016;DHT22;40919;43.236;21.590;2023-03-01T08:31:47;179.60;2252.80
55016;DHT22;40919;43.236;21.590;2023-03-01T08:34:15;179.70;2252.80
55016;DHT22;40919;43.236;21.590;2023-03-01T09:03:56;204.80;2252.80
55016;DHT22;40919;43.236;21.590;2023-03-01T09:06:25;180.10;2252.80
55016;DHT22;40919;43.236;21.590;2023-03-01T09:08:50;180.00;2252.80
55016;DHT22;40919;43.236;21.590;2023-03-01T09:11:19;180.10;2252.80
55016;DHT22;40919;43.236;21.590;2023-03-01T09:13:46;180.10;2252.80
55016;DHT22;40919;43.236;21.590;2023-03-01T09:16:14;180.10;2252.80
55016;DHT22;40919;43.236;21.590;2023-03-01T09:18:40;180.10;2252.80
55016;DHT22;40919;43.236;21.590;2023-03-01T09:21:09;180.10;2252.80
55016;DHT22;40919;43.236;21.590;2023-03-01T09:23:36;204.80;2252.80
55016;DHT22;40919;43.236;21.590;2023-03-01T09:26:03;204.90;2252.80
55016;DHT22;40919;43.236;21.590;2023-03-01T09:28:29;204.90;2252.80
55016;DHT22;40919;43.236;21.590;2023-03-01T10:46:29;230.70;2252.80
55016;DHT22;40919;43.236;21.590;2023-03-01T10:49:19;230.70;2252.80
55016;DHT22;40919;43.236;21.590;2023-03-01T10:51:48;230.60;2252.80
55016;DHT22;40919;43.236;21.590;2023-03-01T10:54:31;230.60;2252.80
55016;DHT22;40919;43.236;21.590;2023-03-01T10:57:00;230.60;2252.80
55016;DHT22;40919;43.236;21.590;2023-03-01T10:59:37;230.60;2252.80
55016;DHT22;40919;43.236;21.590;2023-03-01T11:04:28;230.60;2252.80
55016;DHT22;40919;43.236;21.590;2023-03-01T11:06:59;230.60;2252.80
55016;DHT22;40919;43.236;21.590;2023-03-01T11:09:25;230.50;2252.80
55016;DHT22;40919;43.236;21.590;2023-03-01T11:11:55;230.50;2252.80
55016;DHT22;40919;43.236;21.590;2023-03-01T11:14:23;230.50;2252.80
55016;DHT22;40919;43.236;21.590;2023-03-01T11:17:43;230.50;2252.80
55016;DHT22;40919;43.236;21.590;2023-03-01T11:23:02;230.50;2252.80
55016;DHT22;40919;43.236;21.590;2023-03-01T11:25:40;230.50;2252.80
55016;DHT22;40919;43.236;21.590;2023-03-01T11:28:12;230.60;2252.80
55016;DHT22;40919;43.236;21.590;2023-03-01T11:30:47;230.60;2252.80
55016;DHT22;40919;43.236;21.590;2023-03-01T11:33:43;230.60;2252.80
55016;DHT22;40919;43.236;21.590;2023-03-01T12:09:30;230.70;2252.80
55016;DHT22;40919;43.236;21.590;2023-03-01T12:12:11;230.80;2252.80
55016;DHT22;40919;43.236;21.590;2023-03-01T12:15:03;230.60;2252.80
55016;DHT22;40919;43.236;21.590;2023-03-01T12:23:20;230.50;2252.80
55016;DHT22;40919;43.236;21.590;2023-03-01T12:29:25;230.50;2252.80
55016;DHT22;40919;43.236;21.590;2023-03-01T12:45:57;230.60;2252.80
55016;DHT22;40919;43.236;21.590;2023-03-01T12:51:24;230.60;2252.80
55016;DHT22;40919;43.236;21.590;2023-03-01T12:53:53;230.50;2252.80
55016;DHT22;40919;43.236;21.590;2023-03-01T12:56:27;230.50;2252.80
55016;DHT22;40919;43.236;21.590;2023-03-01T12:59:18;230.50;2252.80
55016;DHT22;40919;43.236;21.590;2023-03-01T13:01:49;230.50;2252.80
55016;DHT22;40919;43.236;21.590;2023-03-01T13:06:55;230.50;2252.80
55016;DHT22;40919;43.236;21.590;2023-03-01T13:17:53;230.50;2252.80
55016;DHT22;40919;43.236;21.590;2023-03-01T13:26:03;230.50;2252.80
55016;DHT22;40919;43.236;21.590;2023-03-01T13:31:06;230.60;2252.80
55016;DHT22;40919;43.236;21.590;2023-03-01T13:33:34;230.60;2252.80
55016;DHT22;40919;43.236;21.590;2023-03-01T13:36:07;230.60;2252.80
55016;DHT22;40919;43.236;21.590;2023-03-01T13:41:15;230.70;2252.80
55016;DHT22;40919;43.236;21.590;2023-03-01T13:43:43;230.70;2252.80
55016;DHT22;40919;43.236;21.590;2023-03-01T13:46:21;230.70;2252.80
55016;DHT22;40919;43.236;21.590;2023-03-01T13:48:55;230.70;2252.80
55016;DHT22;40919;43.236;21.590;2023-03-01T13:51:26;230.70;2252.80
55016;DHT22;40919;43.236;21.590;2023-03-01T13:53:55;230.70;2252.80
55016;DHT22;40919;43.236;21.590;2023-03-01T13:56:27;230.70;2252.80
55016;DHT22;40919;43.236;21.590;2023-03-01T14:03:47;230.70;2252.80
55016;DHT22;40919;43.236;21.590;2023-03-01T14:06:16;230.70;2252.80
55016;DHT22;40919;43.236;21.590;2023-03-01T14:08:46;230.70;2252.80
55016;DHT22;40919;43.236;21.590;2023-03-01T14:11:25;230.80;2252.80
55016;DHT22;40919;43.236;21.590;2023-03-01T14:16:59;230.70;2252.80
55016;DHT22;40919;43.236;21.590;2023-03-01T14:19:28;230.70;2252.80
55016;DHT22;40919;43.236;21.590;2023-03-01T14:22:24;230.80;2252.80
55016;DHT22;40919;43.236;21.590;2023-03-01T14:24:59;230.80;2252.80
55016;DHT22;40919;43.236;21.590;2023-03-01T14:27:27;230.80;2252.80
55016;DHT22;40919;43.236;21.590;2023-03-01T14:30:02;230.80;2252.80
55016;DHT22;40919;43.236;21.590;2023-03-01T14:32:31;230.90;2252.80
55016;DHT22;40919;43.236;21.590;2023-03-01T14:34:59;230.90;2252.80
55016;DHT22;40919;43.236;21.590;2023-03-01T14:37:29;230.80;2252.80
55016;DHT22;40919;43.236;21.590;2023-03-01T14:39:56;230.70;2252.80
55016;DHT22;40919;43.236;21.590;2023-03-01T14:42:24;230.80;2252.80
55016;DHT22;40919;43.236;21.590;2023-03-01T14:44:54;230.90;2252.80
55016;DHT22;40919;43.236;21.590;2023-03-01T14:47:34;230.90;2252.80
55016;DHT22;40919;43.236;21.590;2023-03-01T14:50:26;230.90;2252.80
55016;DHT22;40919;43.236;21.590;2023-03-01T14:52:58;230.90;2252.80
55016;DHT22;40919;43.236;21.590;2023-03-01T14:55:31;230.90;2252.80
55016;DHT22;40919;43.236;21.590;2023-03-01T14:57:58;230.90;2252.80
55016;DHT22;40919;43.236;21.590;2023-03-01T15:00:29;231.00;2252.80
55016;DHT22;40919;43.236;21.590;2023-03-01T15:02:56;231.00;2252.80
55016;DHT22;40919;43.236;21.590;2023-03-01T15:05:30;231.00;2252.80
55016;DHT22;40919;43.236;21.590;2023-03-01T15:07:58;231.00;2252.80
55016;DHT22;40919;43.236;21.590;2023-03-01T15:10:30;231.00;2252.80
55016;DHT22;40919;43.236;21.590;2023-03-01T15:13:09;231.00;2252.80
55016;DHT22;40919;43.236;21.590;2023-03-01T15:15:47;231.00;2252.80
55016;DHT22;40919;43.236;21.590;2023-03-01T15:18:14;231.00;2252.80
55016;DHT22;40919;43.236;21.590;2023-03-01T15:20:41;231.00;2252.80
55016;DHT22;40919;43.236;21.590;2023-03-01T15:23:27;231.00;2252.80
55016;DHT22;40919;43.236;21.590;2023-03-01T15:25:54;230.90;2252.80
55016;DHT22;40919;43.236;21.590;2023-03-01T15:31:19;230.90;2252.80
55016;DHT22;40919;43.236;21.590;2023-03-01T15:33:46;230.90;2252.80
55016;DHT22;40919;43.236;21.590;2023-03-01T15:36:40;230.90;2252.80
55016;DHT22;40919;43.236;21.590;2023-03-01T15:39:36;230.90;2252.80
55016;DHT22;40919;43.236;21.590;2023-03-01T15:47:48;230.80;2252.80
55016;DHT22;40919;43.236;21.590;2023-03-01T15:50:22;230.80;2252.80
55016;DHT22;40919;43.236;21.590;2023-03-01T15:52:48;230.80;2252.80
55016;DHT22;40919;43.236;21.590;2023-03-01T15:55:23;230.80;2252.80
55016;DHT22;40919;43.236;21.590;2023-03-01T15:58:01;230.80;2252.80
55016;DHT22;40919;43.236;21.590;2023-03-01T16:00:28;230.70;2252.80
55016;DHT22;40919;43.236;21.590;2023-03-01T16:02:54;230.80;2252.80
55016;DHT22;40919;43.236;21.590;2023-03-01T16:05:32;230.70;2252.80
55016;DHT22;40919;43.236;21.590;2023-03-01T16:08:00;230.80;2252.80
55016;DHT22;40919;43.236;21.590;2023-03-01T16:10:26;230.80;2252.80
55016;DHT22;40919;43.236;21.590;2023-03-01T16:12:52;230.80;2252.80
55016;DHT22;40919;43.236;21.590;2023-03-01T16:15:20;230.80;2252.80
55016;DHT22;40919;43.236;21.590;2023-03-01T16:17:46;230.80;2252.80
55016;DHT22;40919;43.236;21.590;2023-03-01T16:20:13;230.70;2252.80
55016;DHT22;40919;43.236;21.590;2023-03-01T16:22:42;230.80;2252.80
55016;DHT22;40919;43.236;21.590;2023-03-01T16:25:13;230.70;2252.80
55016;DHT22;40919;43.236;21.590;2023-03-01T16:27:42;230.80;2252.80
55016;DHT22;40919;43.236;21.590;2023-03-01T16:30:08;230.70;2252.80
55016;DHT22;40919;43.236;21.590;2023-03-01T16:32:38;230.70;2252.80
55016;DHT22;40919;43.236;21.590;2023-03-01T16:35:05;230.60;2252.80
55016;DHT22;40919;43.236;21.590;2023-03-01T16:37:33;230.70;2252.80
55016;DHT22;40919;43.236;21.590;2023-03-01T16:39:59;230.70;2252.80
55016;DHT22;40919;43.236;21.590;2023-03-01T16:42:25;230.70;2252.80
55016;DHT22;40919;43.236;21.590;2023-03-01T16:44:57;230.70;2252.80
55016;DHT22;40919;43.236;21.590;2023-03-01T16:47:23;230.60;2252.80
55016;DHT22;40919;43.236;21.590;2023-03-01T16:49:52;230.60;2252.80
55016;DHT22;40919;43.236;21.590;2023-03-01T16:52:19;230.50;2252.80
55016;DHT22;40919;43.236;21.590;2023-03-01T16:54:45;230.60;2252.80
55016;DHT22;40919;43.236;21.590;2023-03-01T16:57:11;230.60;2252.80
55016;DHT22;40919;43.236;21.590;2023-03-01T16:59:37;230.50;2252.80
55016;DHT22;40919;43.236;21.590;2023-03-01T17:02:04;230.50;2252.80
55016;DHT22;40919;43.236;21.590;2023-03-01T17:04:32;230.50;2252.80
55016;DHT22;40919;43.236;21.590;2023-03-01T17:06:57;230.50;2252.80
55016;DHT22;40919;43.236;21.590;2023-03-01T17:09:23;230.50;2252.80
55016;DHT22;40919;43.236;21.590;2023-03-01T17:11:49;230.50;2252.80
55016;DHT22;40919;43.236;21.590;2023-03-01T17:14:16;230.50;2252.80
55016;DHT22;40919;43.236;21.590;2023-03-01T17:16:43;230.50;2252.80
55016;DHT22;40919;43.236;21.590;2023-03-01T17:19:09;230.50;2252.80
55016;DHT22;40919;43.236;21.590;2023-03-01T17:21:36;230.50;2252.80
55016;DHT22;40919;43.236;21.590;2023-03-01T17:24:02;230.40;2252.80
55016;DHT22;40919;43.236;21.590;2023-03-01T17:26:28;230.50;2252.80
55016;DHT22;40919;43.236;21.590;2023-03-01T17:28:55;230.50;2252.80
55016;DHT22;40919;43.236;21.590;2023-03-01T17:31:21;230.60;2252.80
55016;DHT22;40919;43.236;21.590;2023-03-01T17:33:47;230.50;2252.80
55016;DHT22;40919;43.236;21.590;2023-03-01T17:36:15;230.40;2252.80
55016;DHT22;40919;43.236;21.590;2023-03-01T17:38:40;230.40;2252.80
55016;DHT22;40919;43.236;21.590;2023-03-01T17:41:06;205.70;2252.80
55016;DHT22;40919;43.236;21.590;2023-03-01T17:43:32;230.40;2252.80
55016;DHT22;40919;43.236;21.590;2023-03-01T17:45:59;205.70;2252.80
55016;DHT22;40919;43.236;21.590;2023-03-01T17:48:25;230.40;2252.80
55016;DHT22;40919;43.236;21.590;2023-03-01T17:50:51;230.40;2252.80
55016;DHT22;40919;43.236;21.590;2023-03-01T17:53:17;205.70;2252.80
55016;DHT22;40919;43.236;21.590;2023-03-01T17:55:44;205.70;2252.80
55016;DHT22;40919;43.236;21.590;2023-03-01T17:58:12;205.70;2252.80
55016;DHT22;40919;43.236;21.590;2023-03-01T18:00:38;230.40;2252.80
55016;DHT22;40919;43.236;21.590;2023-03-01T18:03:05;205.70;2252.80
55016;DHT22;40919;43.236;21.590;2023-03-01T18:05:32;205.70;2252.80
55016;DHT22;40919;43.236;21.590;2023-03-01T18:07:59;230.40;2252.80
55016;DHT22;40919;43.236;21.590;2023-03-01T18:10:25;230.40;2252.80
55016;DHT22;40919;43.236;21.590;2023-03-01T18:12:51;205.70;2252.80
55016;DHT22;40919;43.236;21.590;2023-03-01T18:15:17;230.40;2252.80
55016;DHT22;40919;43.236;21.590;2023-03-01T18:17:43;205.70;2252.80
55016;DHT22;40919;43.236;21.590;2023-03-01T18:20:09;205.70;2252.80
55016;DHT22;40919;43.236;21.590;2023-03-01T18:22:35;205.70;2252.80
55016;DHT22;40919;43.236;21.590;2023-03-01T18:25:02;230.40;2252.80
55016;DHT22;40919;43.236;21.590;2023-03-01T18:27:29;205.40;2252.80
55016;DHT22;40919;43.236;21.590;2023-03-01T18:29:55;230.40;2252.80
55016;DHT22;40919;43.236;21.590;2023-03-01T18:32:22;205.70;2252.80